createdAt,value
2022-11-05T00:02:03.116Z,98255.23
2022-11-05T00:04:51.009Z,98262.69
2022-11-05T00:07:44.432Z,98279.29
2022-11-05T00:10:30.300Z,98277.67
2022-11-05T00:13:18.933Z,98278.25
2022-11-05T00:16:05.537Z,98285.59
2022-11-05T00:18:33.490Z,98291.31
2022-11-05T00:21:01.609Z,98296.00
2022-11-05T00:23:48.629Z,98297.98
2022-11-05T00:26:17.154Z,98303.02
2022-11-05T00:28:45.171Z,98303.02
2022-11-05T00:31:14.466Z,98310.33
2022-11-05T00:33:43.173Z,98310.01
2022-11-05T00:36:11.831Z,98318.34
2022-11-05T00:38:39.829Z,98322.64
2022-11-05T00:41:08.139Z,98320.52
2022-11-05T00:43:54.832Z,98326.77
2022-11-05T00:46:23.492Z,98324.36
2022-11-05T00:49:10.216Z,98324.45
2022-11-05T00:51:38.147Z,98325.95
2022-11-05T00:54:06.248Z,98329.13
2022-11-05T00:56:34.327Z,98329.02
2022-11-05T00:59:02.328Z,98332.91
2022-11-05T01:01:30.484Z,98343.09
2022-11-05T01:03:58.814Z,98346.31
2022-11-05T01:06:26.770Z,98348.51
2022-11-05T01:08:56.360Z,98353.21
2022-11-05T01:11:33.744Z,98359.40
2022-11-05T01:14:05.263Z,98358.58
2022-11-05T01:16:33.792Z,98360.17
2022-11-05T01:19:02.344Z,98358.86
2022-11-05T01:21:31.188Z,98361.67
2022-11-05T01:23:59.388Z,98361.74
2022-11-05T01:26:28.111Z,98361.14
2022-11-05T01:29:00.641Z,98364.58
2022-11-05T01:31:29.255Z,98374.82
2022-11-05T01:33:57.575Z,98379.61
2022-11-05T01:36:25.532Z,98385.08
2022-11-05T01:38:54.542Z,98390.06
2022-11-05T01:41:22.746Z,98388.27
2022-11-05T01:44:08.805Z,98387.71
2022-11-05T01:46:47.622Z,98396.95
2022-11-05T01:49:31.916Z,98401.98
2022-11-05T01:52:04.239Z,98391.94
2022-11-05T01:54:35.068Z,98395.95
2022-11-05T01:57:08.978Z,98384.70
2022-11-05T01:59:46.340Z,98391.07
2022-11-05T02:02:15.882Z,98396.04
2022-11-05T02:04:55.113Z,98402.73
2022-11-05T02:07:26.941Z,98403.44
2022-11-05T02:10:14.287Z,98396.62
2022-11-05T02:12:45.858Z,98399.17
2022-11-05T02:15:23.894Z,98405.33
2022-11-05T02:18:11.992Z,98409.33
2022-11-05T02:20:52.357Z,98411.75
2022-11-05T02:23:56.253Z,98417.52
2022-11-05T02:26:46.371Z,98437.02
2022-11-05T02:29:39.533Z,98448.80
2022-11-05T02:32:17.637Z,98449.87
2022-11-05T02:35:15.941Z,98443.67
2022-11-05T02:37:55.875Z,98445.13
2022-11-05T02:40:33.717Z,98445.03
2022-11-05T02:43:08.250Z,98442.96
2022-11-05T02:46:02.926Z,98449.27
2022-11-05T02:48:57.022Z,98453.59
2022-11-05T02:51:53.295Z,98455.16
2022-11-05T02:54:28.606Z,98458.02
2022-11-05T02:56:59.304Z,98458.13
2022-11-05T02:59:27.290Z,98472.50
2022-11-05T03:01:57.301Z,98474.29
2022-11-05T03:04:26.735Z,98481.12
2022-11-05T03:07:19.958Z,98485.32
2022-11-05T03:10:06.025Z,98494.46
2022-11-05T03:12:51.263Z,98492.15
2022-11-05T03:15:37.736Z,98490.67
2022-11-05T03:18:25.800Z,98497.15
2022-11-05T03:21:46.599Z,98499.24
2022-11-05T03:24:31.706Z,98506.48
2022-11-05T03:27:08.146Z,98520.11
2022-11-05T03:29:42.923Z,98522.90
2022-11-05T03:32:12.618Z,98535.88
2022-11-05T03:34:46.233Z,98533.28
2022-11-05T03:37:15.771Z,98543.89
2022-11-05T03:39:48.899Z,98551.69
2022-11-05T03:42:21.165Z,98555.70
2022-11-05T03:44:54.904Z,98566.19
2022-11-05T03:47:29.840Z,98574.36
2022-11-05T03:50:18.289Z,98578.85
2022-11-05T03:52:55.170Z,98590.36
2022-11-05T03:55:36.363Z,98591.92
2022-11-05T03:58:05.706Z,98591.92
2022-11-05T04:00:33.912Z,98591.54
2022-11-05T04:03:02.701Z,98596.08
2022-11-05T04:05:31.262Z,98596.00
2022-11-05T04:08:18.120Z,98605.77
2022-11-05T04:11:04.950Z,98611.11
2022-11-05T04:13:37.521Z,98611.88
2022-11-05T04:16:24.667Z,98617.55
2022-11-05T04:18:52.620Z,98622.17
2022-11-05T04:21:39.343Z,98619.05
2022-11-05T04:24:10.969Z,98615.79
2022-11-05T04:26:41.921Z,98614.34
2022-11-05T04:29:29.450Z,98612.08
2022-11-05T04:31:57.824Z,98614.45
2022-11-05T04:34:26.811Z,98616.31
2022-11-05T04:36:55.123Z,98616.04
2022-11-05T04:39:24.243Z,98615.71
2022-11-05T04:41:52.391Z,98619.39
2022-11-05T04:44:20.562Z,98631.23
2022-11-05T04:46:49.183Z,98638.08
2022-11-05T04:49:20.216Z,98638.80
2022-11-05T04:51:48.166Z,98639.83
2022-11-05T04:54:16.083Z,98642.82
2022-11-05T04:56:44.039Z,98639.87
2022-11-05T04:59:12.066Z,98640.33
2022-11-05T05:01:41.023Z,98648.46
2022-11-05T05:04:09.210Z,98649.91
2022-11-05T05:06:38.568Z,98656.40
2022-11-05T05:09:06.701Z,98658.77
2022-11-05T05:11:34.623Z,98657.95
2022-11-05T05:14:02.614Z,98657.36
2022-11-05T05:16:31.752Z,98655.30
2022-11-05T05:19:00.209Z,98658.47
2022-11-05T05:21:40.646Z,98656.34
2022-11-05T05:24:12.097Z,98662.20
2022-11-05T05:26:43.498Z,98662.15
2022-11-05T05:29:11.948Z,98658.31
2022-11-05T05:31:42.044Z,98662.77
2022-11-05T05:34:14.943Z,98663.56
2022-11-05T05:36:43.190Z,98664.13
2022-11-05T05:39:11.495Z,98664.96
2022-11-05T05:41:41.256Z,98662.50
2022-11-05T05:44:09.317Z,98666.42
2022-11-05T05:46:37.686Z,98675.59
2022-11-05T05:49:12.482Z,98686.42
2022-11-05T05:51:41.287Z,98693.52
2022-11-05T05:54:12.351Z,98697.05
2022-11-05T05:56:43.681Z,98700.42
2022-11-05T05:59:15.916Z,98698.48
2022-11-05T06:01:45.370Z,98700.82
2022-11-05T06:04:14.591Z,98706.35
2022-11-05T06:06:45.406Z,98709.45
2022-11-05T06:09:17.006Z,98714.58
2022-11-05T06:11:45.712Z,98724.75
2022-11-05T06:14:19.324Z,98734.77
2022-11-05T06:16:49.499Z,98744.13
2022-11-05T06:19:18.246Z,98747.71
2022-11-05T06:21:47.863Z,98748.96
2022-11-05T06:24:18.737Z,98753.02
2022-11-05T06:26:50.826Z,98757.60
2022-11-05T06:29:19.586Z,98761.42
2022-11-05T06:31:48.248Z,98760.17
2022-11-05T06:34:41.334Z,98764.95
2022-11-05T06:37:10.221Z,98772.60
2022-11-05T06:39:38.539Z,98779.89
2022-11-05T06:42:22.598Z,98781.67
2022-11-05T06:44:57.251Z,98783.17
2022-11-05T06:47:27.309Z,98783.35
2022-11-05T06:49:57.532Z,98786.41
2022-11-05T06:52:27.349Z,98789.28
2022-11-05T06:54:55.376Z,98790.73
2022-11-05T06:57:25.276Z,98799.79
2022-11-05T06:59:59.957Z,98797.89
2022-11-05T07:02:33.616Z,98801.27
2022-11-05T07:05:02.358Z,98806.49
2022-11-05T07:07:32.527Z,98804.55
2022-11-05T07:10:02.155Z,98804.08
2022-11-05T07:12:32.698Z,98805.81
2022-11-05T07:15:01.142Z,98808.43
2022-11-05T07:17:32.998Z,98818.14
2022-11-05T07:20:01.877Z,98819.74
2022-11-05T07:22:30.064Z,98818.42
2022-11-05T07:24:58.867Z,98816.86
2022-11-05T07:27:29.255Z,98834.95
2022-11-05T07:29:59.121Z,98847.40
2022-11-05T07:32:28.465Z,98852.71
2022-11-05T07:35:02.294Z,98860.51
2022-11-05T07:37:31.053Z,98860.08
2022-11-05T07:39:59.223Z,98870.12
2022-11-05T07:42:28.644Z,98872.91
2022-11-05T07:44:57.345Z,98873.55
2022-11-05T07:47:25.748Z,98862.36
2022-11-05T07:52:39.300Z,98879.02
2022-11-05T07:55:14.387Z,98886.38
2022-11-05T07:57:51.137Z,98886.77
2022-11-05T08:00:22.450Z,98904.98
2022-11-05T08:03:07.872Z,98914.80
2022-11-05T08:05:41.127Z,98907.86
2022-11-05T08:08:13.040Z,98904.88
2022-11-05T08:10:42.258Z,98902.38
2022-11-05T08:13:11.546Z,98906.11
2022-11-05T08:15:43.165Z,98913.35
2022-11-05T08:18:14.739Z,98915.30
2022-11-05T08:20:44.818Z,98921.42
2022-11-05T08:23:14.620Z,98920.58
2022-11-05T08:25:43.836Z,98921.70
2022-11-05T08:28:14.875Z,98924.02
2022-11-05T08:30:43.883Z,98928.52
2022-11-05T08:33:13.713Z,98933.30
2022-11-05T08:35:43.090Z,98940.00
2022-11-05T08:38:15.981Z,98949.38
2022-11-05T08:40:46.740Z,98957.29
2022-11-05T08:43:15.148Z,98960.47
2022-11-05T08:45:44.242Z,98964.19
2022-11-05T08:48:15.223Z,98970.11
2022-11-05T08:50:47.808Z,98972.48
2022-11-05T08:53:18.409Z,98977.02
2022-11-05T08:55:50.834Z,98978.04
2022-11-05T08:58:21.002Z,98978.46
2022-11-05T09:00:51.737Z,98979.95
2022-11-05T09:03:20.346Z,98982.09
2022-11-05T09:05:51.672Z,98983.63
2022-11-05T09:08:22.232Z,98983.65
2022-11-05T09:10:52.944Z,98986.69
2022-11-05T09:13:23.516Z,98990.29
2022-11-05T09:15:54.452Z,98994.89
2022-11-05T09:18:39.213Z,99003.02
2022-11-05T09:21:08.552Z,99007.46
2022-11-05T09:23:43.802Z,99014.58
2022-11-05T09:26:13.448Z,99014.21
2022-11-05T09:28:43.920Z,99013.86
2022-11-05T09:31:12.775Z,99016.50
2022-11-05T09:33:42.636Z,99019.75
2022-11-05T09:36:12.040Z,99020.14
2022-11-05T09:38:40.548Z,99021.77
2022-11-05T09:41:28.168Z,99022.55
2022-11-05T09:44:19.188Z,99025.58
2022-11-05T09:47:01.867Z,99027.23
2022-11-05T09:49:48.230Z,99024.90
2022-11-05T09:52:51.890Z,99029.61
2022-11-05T09:55:46.540Z,99030.34
2022-11-05T09:58:37.044Z,99033.86
2022-11-05T10:01:14.841Z,99040.90
2022-11-05T10:03:50.189Z,99041.97
2022-11-05T10:06:26.027Z,99039.17
2022-11-05T10:09:09.709Z,99047.54
2022-11-05T10:12:01.745Z,99050.02
2022-11-05T10:14:39.665Z,99054.73
2022-11-05T10:17:13.813Z,99052.11
2022-11-05T10:19:51.928Z,99056.04
2022-11-05T10:22:21.306Z,99051.65
2022-11-05T10:24:54.101Z,99054.42
2022-11-05T10:27:33.310Z,99055.83
2022-11-05T10:30:02.465Z,99054.76
2022-11-05T10:32:38.065Z,99057.48
2022-11-05T10:35:13.415Z,99055.41
2022-11-05T10:37:43.380Z,99054.34
2022-11-05T10:40:20.323Z,99056.95
2022-11-05T10:43:03.465Z,99054.61
2022-11-05T10:46:13.014Z,99054.48
2022-11-05T10:49:00.422Z,99055.30
2022-11-05T10:51:31.749Z,99054.09
2022-11-05T10:54:24.605Z,99058.16
2022-11-05T10:56:55.367Z,99061.89
2022-11-05T10:59:30.345Z,99065.12
2022-11-05T11:02:14.552Z,99064.38
2022-11-05T11:04:52.838Z,99065.16
2022-11-05T11:07:25.756Z,99064.74
2022-11-05T11:09:54.269Z,99062.33
2022-11-05T11:12:29.243Z,99065.90
2022-11-05T11:15:23.766Z,99068.11
2022-11-05T11:17:53.087Z,99069.84
2022-11-05T11:20:35.197Z,99073.50
2022-11-05T11:23:03.213Z,99074.61
2022-11-05T11:25:38.926Z,99074.73
2022-11-05T11:28:15.540Z,99076.01
2022-11-05T11:30:50.274Z,99076.96
2022-11-05T11:33:23.325Z,99076.11
2022-11-05T11:35:52.926Z,99076.38
2022-11-05T11:38:25.875Z,99079.95
2022-11-05T11:41:05.036Z,99084.63
2022-11-05T11:43:37.574Z,99080.73
2022-11-05T11:46:15.253Z,99087.19
2022-11-05T11:48:47.832Z,99090.54
2022-11-05T11:51:33.028Z,99090.48
2022-11-05T11:54:02.892Z,99095.70
2022-11-05T11:56:44.428Z,99094.92
2022-11-05T11:59:46.777Z,99101.30
2022-11-05T12:02:35.307Z,99101.56
2022-11-05T12:05:09.287Z,99100.88
2022-11-05T12:07:51.600Z,99095.53
2022-11-05T12:10:46.846Z,99105.46
2022-11-05T12:13:25.519Z,99108.18
2022-11-05T12:15:57.341Z,99117.88
2022-11-05T12:19:22.660Z,99121.02
2022-11-05T12:22:22.065Z,99115.90
2022-11-05T12:24:57.040Z,99116.23
2022-11-05T12:27:50.079Z,99120.48
2022-11-05T12:30:22.020Z,99116.93
2022-11-05T12:33:16.064Z,99125.86
2022-11-05T12:36:07.163Z,99129.19
2022-11-05T12:39:00.101Z,99131.90
2022-11-05T12:41:48.941Z,99138.00
2022-11-05T12:44:43.246Z,99144.27
2022-11-05T12:47:33.862Z,99141.71
2022-11-05T12:50:21.406Z,99142.18
2022-11-05T12:52:56.121Z,99140.11
2022-11-05T12:55:27.724Z,99143.25
2022-11-05T12:58:23.381Z,99149.30
2022-11-05T13:00:59.475Z,99146.05
2022-11-05T13:03:41.501Z,99144.38
2022-11-05T13:06:15.070Z,99139.86
2022-11-05T13:09:02.597Z,99135.23
2022-11-05T13:11:36.041Z,99135.28
2022-11-05T13:14:14.553Z,99139.39
2022-11-05T13:16:49.853Z,99142.42
2022-11-05T13:19:22.488Z,99143.02
2022-11-05T13:21:58.262Z,99146.30
2022-11-05T13:24:34.689Z,99151.94
2022-11-05T13:27:12.359Z,99151.73
2022-11-05T13:30:05.226Z,99154.52
2022-11-05T13:32:39.486Z,99158.17
2022-11-05T13:35:18.486Z,99157.96
2022-11-05T13:38:13.278Z,99156.45
2022-11-05T13:41:03.763Z,99165.21
2022-11-05T13:43:50.443Z,99167.45
2022-11-05T13:46:45.308Z,99168.32
2022-11-05T13:49:36.329Z,99173.89
2022-11-05T13:52:12.468Z,99179.66
2022-11-05T13:55:00.366Z,99181.50
2022-11-05T13:57:47.440Z,99179.73
2022-11-05T14:00:19.864Z,99180.26
2022-11-05T14:03:08.685Z,99189.01
2022-11-05T14:05:42.323Z,99194.75
2022-11-05T14:08:18.516Z,99195.64
2022-11-05T14:10:58.725Z,99192.27
2022-11-05T14:13:42.625Z,99199.02
2022-11-05T14:16:20.249Z,99201.61
2022-11-05T14:19:18.490Z,99204.26
2022-11-05T14:21:48.581Z,99204.20
2022-11-05T14:24:22.706Z,99209.07
2022-11-05T14:27:04.734Z,99213.86
2022-11-05T14:29:51.380Z,99221.45
2022-11-05T14:32:28.876Z,99227.36
2022-11-05T14:35:17.155Z,99227.77
2022-11-05T14:38:00.029Z,99229.30
2022-11-05T14:40:40.876Z,99230.67
2022-11-05T14:43:15.111Z,99229.72
2022-11-05T14:46:12.655Z,99235.02
2022-11-05T14:48:47.698Z,99239.17
2022-11-05T14:51:38.607Z,99238.98
2022-11-05T14:54:38.529Z,99240.58
2022-11-05T14:57:07.467Z,99239.77
2022-11-05T14:59:52.867Z,99240.17
2022-11-05T15:02:30.119Z,99241.44
2022-11-05T15:05:38.196Z,99247.96
2022-11-05T15:08:30.681Z,99248.11
2022-11-05T15:11:13.829Z,99251.00
2022-11-05T15:13:54.104Z,99254.90
2022-11-05T15:16:50.397Z,99258.63
2022-11-05T15:19:46.556Z,99260.02
2022-11-05T15:22:34.945Z,99263.30
2022-11-05T15:25:05.965Z,99264.88
2022-11-05T15:27:46.078Z,99268.50
2022-11-05T15:30:18.012Z,99269.48
2022-11-05T15:32:47.504Z,99274.95
2022-11-05T15:35:28.118Z,99273.27
2022-11-05T15:38:02.103Z,99274.61
2022-11-05T15:40:33.324Z,99276.14
2022-11-05T15:43:21.771Z,99275.52
2022-11-05T15:45:59.219Z,99278.42
2022-11-05T15:48:28.799Z,99284.25
2022-11-05T15:50:57.770Z,99286.05
2022-11-05T15:53:56.148Z,99288.04
2022-11-05T15:56:55.953Z,99290.02
2022-11-05T15:59:30.028Z,99293.60
2022-11-05T16:02:13.622Z,99299.94
2022-11-05T16:04:47.704Z,99302.58
2022-11-05T16:07:17.092Z,99303.83
2022-11-05T16:09:57.831Z,99307.66
2022-11-05T16:12:33.363Z,99312.36
2022-11-05T16:15:18.447Z,99311.23
2022-11-05T16:17:52.421Z,99314.37
2022-11-05T16:20:32.786Z,99313.31
2022-11-05T16:23:02.568Z,99315.71
2022-11-05T16:25:44.218Z,99320.23
2022-11-05T16:28:28.056Z,99326.48
2022-11-05T16:30:58.768Z,99325.20
2022-11-05T16:33:33.829Z,99329.05
2022-11-05T16:36:01.953Z,99329.73
2022-11-05T16:38:33.426Z,99337.06
2022-11-05T16:41:05.170Z,99339.32
2022-11-05T16:43:34.755Z,99345.42
2022-11-05T16:46:03.487Z,99343.64
2022-11-05T16:48:31.447Z,99340.96
2022-11-05T16:51:02.412Z,99337.96
2022-11-05T16:53:30.866Z,99343.63
2022-11-05T16:56:00.153Z,99346.86
2022-11-05T16:58:29.204Z,99354.90
2022-11-05T17:01:11.493Z,99359.77
2022-11-05T17:18:19.302Z,99372.06
2022-11-05T17:20:51.120Z,99376.16
2022-11-05T17:23:22.890Z,99377.05
2022-11-05T17:25:55.993Z,99387.30
2022-11-05T17:28:27.070Z,99385.65
2022-11-05T17:30:58.152Z,99384.91
2022-11-05T17:33:27.086Z,99387.25
2022-11-05T17:35:56.499Z,99391.84
2022-11-05T17:38:27.840Z,99390.14
2022-11-05T17:40:55.885Z,99391.79
2022-11-05T17:43:24.750Z,99395.11
2022-11-05T17:45:59.990Z,99397.17
2022-11-05T17:48:33.050Z,99400.11
2022-11-05T17:51:03.674Z,99402.50
2022-11-05T17:53:32.412Z,99408.10
2022-11-05T17:56:00.994Z,99407.23
2022-11-05T17:58:30.901Z,99407.55
2022-11-05T18:01:00.123Z,99406.79
2022-11-05T18:03:28.344Z,99410.52
2022-11-05T18:06:08.111Z,99412.60
2022-11-05T18:08:36.712Z,99419.21
2022-11-05T18:11:05.937Z,99421.92
2022-11-05T18:13:35.588Z,99428.45
2022-11-05T18:16:03.773Z,99425.58
2022-11-05T18:18:31.893Z,99421.62
2022-11-05T18:21:01.179Z,99421.52
2022-11-05T18:23:29.480Z,99423.02
2022-11-05T18:25:59.817Z,99424.89
2022-11-05T18:28:31.373Z,99426.38
2022-11-05T18:31:00.955Z,99429.64
2022-11-05T18:33:29.127Z,99428.88
2022-11-05T18:36:00.094Z,99431.98
2022-11-05T18:38:29.571Z,99432.62
2022-11-05T18:41:13.225Z,99435.14
2022-11-05T18:43:47.795Z,99437.11
2022-11-05T18:46:36.366Z,99442.44
2022-11-05T18:49:07.786Z,99445.00
2022-11-05T18:51:36.520Z,99449.29
2022-11-05T18:54:06.064Z,99452.48
2022-11-05T18:56:34.769Z,99460.08
2022-11-05T18:59:34.583Z,99464.55
2022-11-05T19:01:51.430Z,99468.14
2022-11-05T19:04:21.122Z,99469.83
2022-11-05T19:06:49.835Z,99471.86
2022-11-05T19:09:17.923Z,99474.23
2022-11-05T19:11:46.231Z,99475.41
2022-11-05T19:14:14.290Z,99481.64
2022-11-05T19:16:42.400Z,99483.48
2022-11-05T19:19:11.373Z,99483.11
2022-11-05T19:21:42.898Z,99483.88
2022-11-05T19:24:17.586Z,99486.98
2022-11-05T19:26:47.669Z,99491.09
2022-11-05T19:29:18.715Z,99492.27
2022-11-05T19:31:47.142Z,99494.12
2022-11-05T19:34:15.672Z,99494.21
2022-11-05T19:36:43.833Z,99492.74
2022-11-05T19:39:14.968Z,99491.45
2022-11-05T19:41:43.937Z,99498.34
2022-11-05T19:44:13.425Z,99499.28
2022-11-05T19:46:44.178Z,99495.28
2022-11-05T19:49:13.614Z,99493.90
2022-11-05T19:51:42.615Z,99493.42
2022-11-05T19:54:11.947Z,99496.28
2022-11-05T19:56:40.249Z,99499.48
2022-11-05T19:59:12.316Z,99501.48
2022-11-05T20:01:42.938Z,99500.84
2022-11-05T20:04:13.216Z,99505.94
2022-11-05T20:06:46.309Z,99511.01
2022-11-05T20:09:21.554Z,99512.27
2022-11-05T20:11:54.975Z,99514.55
2022-11-05T20:14:25.095Z,99512.80
2022-11-05T20:16:54.752Z,99510.73
2022-11-05T20:19:26.203Z,99515.08
2022-11-05T20:21:54.268Z,99516.14
2022-11-05T20:24:25.281Z,99517.91
2022-11-05T20:26:56.471Z,99520.20
2022-11-05T20:29:30.608Z,99521.13
2022-11-05T20:32:06.474Z,99522.58
2022-11-05T20:34:36.299Z,99520.67
2022-11-05T20:37:05.254Z,99523.14
2022-11-05T20:39:36.642Z,99527.56
2022-11-05T20:42:05.963Z,99525.86
2022-11-05T20:44:34.103Z,99528.16
2022-11-05T20:47:03.464Z,99530.05
2022-11-05T20:49:32.121Z,99533.20
2022-11-05T20:52:01.431Z,99532.34
2022-11-05T20:54:30.999Z,99532.72
2022-11-05T20:56:59.895Z,99533.10
2022-11-05T20:59:28.802Z,99532.77
2022-11-05T21:01:57.418Z,99532.50
2022-11-05T21:04:26.167Z,99534.97
2022-11-05T21:06:54.791Z,99531.33
2022-11-05T21:09:25.550Z,99534.47
2022-11-05T21:12:12.347Z,99536.34
2022-11-05T21:14:43.035Z,99530.48
2022-11-05T21:17:13.022Z,99531.43
2022-11-05T21:19:41.549Z,99532.00
2022-11-05T21:22:15.262Z,99529.75
2022-11-05T21:24:45.272Z,99527.99
2022-11-05T21:27:13.597Z,99531.48
2022-11-05T21:29:41.620Z,99532.48
2022-11-05T21:32:10.106Z,99537.52
2022-11-05T21:34:39.129Z,99538.39
2022-11-05T21:37:07.726Z,99539.43
2022-11-05T21:39:36.124Z,99538.89
2022-11-05T21:42:05.168Z,99541.61
2022-11-05T21:44:33.764Z,99539.46
2022-11-05T21:47:04.588Z,99541.34
2022-11-05T21:49:34.590Z,99540.93
2022-11-05T21:52:22.113Z,99539.94
2022-11-05T21:55:09.063Z,99542.23
2022-11-05T21:57:56.264Z,99540.30
2022-11-05T22:00:24.378Z,99536.83
2022-11-05T22:02:52.722Z,99534.38
2022-11-05T22:05:21.389Z,99537.33
2022-11-05T22:07:49.996Z,99544.45
2022-11-05T22:10:18.379Z,99544.61
2022-11-05T22:12:46.677Z,99546.09
2022-11-05T22:15:14.845Z,99551.94
2022-11-05T22:17:46.999Z,99553.99
2022-11-05T22:20:16.400Z,99554.98
2022-11-05T22:22:45.208Z,99554.36
2022-11-05T22:25:14.465Z,99556.14
2022-11-05T22:27:44.149Z,99553.95
2022-11-05T22:30:13.587Z,99556.99
2022-11-05T22:32:41.727Z,99556.45
2022-11-05T22:35:10.117Z,99554.02
2022-11-05T22:37:38.338Z,99553.98
2022-11-05T22:40:07.037Z,99552.35
2022-11-05T22:42:35.084Z,99554.00
2022-11-05T22:45:04.011Z,99550.45
2022-11-05T22:47:32.105Z,99550.92
2022-11-05T22:50:06.008Z,99545.67
2022-11-05T22:52:34.176Z,99545.63
2022-11-05T22:55:04.768Z,99549.35
2022-11-05T22:57:32.844Z,99548.90
2022-11-05T23:00:01.259Z,99544.77
2022-11-05T23:02:29.925Z,99547.58
2022-11-05T23:04:59.102Z,99547.08
2022-11-05T23:07:45.857Z,99554.25
2022-11-05T23:10:32.593Z,99555.80
2022-11-05T23:13:00.484Z,99556.48
2022-11-05T23:15:47.115Z,99557.66
2022-11-05T23:18:33.888Z,99557.96
2022-11-05T23:21:23.191Z,99560.67
2022-11-05T23:24:06.951Z,99563.07
2022-11-05T23:26:52.929Z,99564.45
2022-11-05T23:29:25.490Z,99567.55
2022-11-05T23:32:12.921Z,99567.18
2022-11-05T23:34:42.072Z,99565.95
2022-11-05T23:37:29.461Z,99562.13
2022-11-05T23:39:57.520Z,99565.97
2022-11-05T23:42:44.875Z,99567.73
2022-11-05T23:45:31.678Z,99567.89
2022-11-05T23:48:17.336Z,99568.24
2022-11-05T23:50:51.045Z,99567.70
2022-11-05T23:53:19.808Z,99572.09
2022-11-05T23:55:49.412Z,99571.77
2022-11-05T23:58:18.610Z,99572.67
